Time;durP1;ratioP1;P1;durP2;ratioP2;P2;SDS_P1;SDS_P2;PMS_P1;PMS_P2;Temp;Humidity;BMP_temperature;BMP_pressure;BME280_temperature;BME280_humidity;BME280_pressure;Samples;Min_cycle;Max_cycle;Signal;HPM_P1;HPM_P2
2021/11/07 00:05:10;;;;;;;7.45;6.07;;;10.00;93.90;;;;;;4953155;28;20047;-73
2021/11/07 00:07:57;;;;;;;7.75;5.97;;;10.00;94.00;;;;;;4949922;28;20562;-74
2021/11/07 00:13:12;;;;;;;7.78;6.07;;;10.00;94.00;;;;;;4946865;28;20503;-72
2021/11/07 00:15:40;;;;;;;8.25;5.65;;;10.00;94.00;;;;;;4947708;28;20078;-72
2021/11/07 00:18:12;;;;;;;7.22;5.03;;;10.00;94.00;;;;;;4949372;28;20039;-75
2021/11/07 00:21:06;;;;;;;6.45;4.82;;;10.00;94.10;;;;;;4951655;28;20039;-73
2021/11/07 00:26:22;;;;;;;;;;;10.00;94.10;;;;;;4934682;28;20741;-74
2021/11/07 00:29:05;;;;;;;7.15;4.97;;;10.00;94.10;;;;;;4960092;28;19952;-74
2021/11/07 00:36:59;;;;;;;7.40;5.90;;;10.00;94.20;;;;;;4956537;28;20098;-75
2021/11/07 00:44:59;;;;;;;6.78;5.38;;;10.00;94.30;;;;;;4956368;28;20051;-74
2021/11/07 00:49:58;;;;;;;7.68;6.18;;;10.00;94.40;;;;;;4940798;28;20739;-77
2021/11/07 00:57:27;;;;;;;9.32;7.32;;;10.00;94.60;;;;;;4959700;28;20101;-75
2021/11/07 01:00:03;;;;;;;9.30;8.20;;;10.00;94.60;;;;;;4943663;28;20047;-75
2021/11/07 01:02:33;;;;;;;8.38;7.28;;;10.00;94.70;;;;;;4964613;28;20047;-75
2021/11/07 01:05:04;;;;;;;9.35;7.57;;;10.00;94.80;;;;;;4960175;28;20070;-75
2021/11/07 01:07:31;;;;;;;7.35;6.32;;;10.10;94.80;;;;;;4958230;28;20070;-76
2021/11/07 01:09:59;;;;;;;7.20;5.25;;;10.10;94.80;;;;;;4949298;28;20053;-76
2021/11/07 01:12:27;;;;;;;6.82;5.82;;;10.10;94.70;;;;;;4953940;28;20158;-76
2021/11/07 01:14:57;;;;;;;7.32;6.40;;;10.10;94.70;;;;;;4956678;28;20031;-75
2021/11/07 01:17:25;;;;;;;8.68;5.80;;;10.10;94.70;;;;;;4958250;28;20038;-76
2021/11/07 01:19:54;;;;;;;8.70;6.43;;;10.20;94.80;;;;;;4949563;28;20135;-75
2021/11/07 01:22:37;;;;;;;10.32;7.63;;;10.20;94.80;;;;;;4940954;28;20035;-75
2021/11/07 01:25:05;;;;;;;8.95;7.97;;;10.20;94.90;;;;;;4963881;28;20051;-76
2021/11/07 01:27:42;;;;;;;9.38;7.75;;;10.20;94.90;;;;;;4962337;28;20607;-76
2021/11/07 01:30:16;;;;;;;14.15;10.65;;;10.20;94.90;;;;;;4957494;28;20130;-75
2021/11/07 01:32:49;;;;;;;13.18;10.23;;;10.20;95.00;;;;;;4961897;28;20459;-76
2021/11/07 01:35:24;;;;;;;;;;;10.20;95.00;;;;;;4960491;28;20059;-76
2021/11/07 01:40:30;;;;;;;11.38;9.07;;;10.20;95.10;;;;;;4958804;28;20047;-76
2021/11/07 01:42:58;;;;;;;11.75;9.82;;;10.20;95.00;;;;;;4942133;28;20054;-76
2021/11/07 01:45:40;;;;;;;13.10;9.27;;;10.30;95.10;;;;;;4958071;28;20054;-76
2021/11/07 01:48:14;;;;;;;11.82;9.57;;;10.30;95.10;;;;;;4960674;28;20046;-76
2021/11/07 01:50:46;;;;;;;12.38;9.10;;;10.30;95.10;;;;;;4964985;28;20042;-76
2021/11/07 01:55:52;;;;;;;12.40;10.20;;;10.30;95.10;;;;;;4944691;28;20321;-77
2021/11/07 01:58:20;;;;;;;13.00;9.85;;;10.40;95.10;;;;;;4958741;28;20098;-76
2021/11/07 02:00:51;;;;;;;17.48;13.02;;;10.40;95.10;;;;;;4944008;28;20453;-76
2021/11/07 02:03:18;;;;;;;15.35;12.05;;;10.40;95.10;;;;;;4958279;28;20075;-76
2021/11/07 02:05:49;;;;;;;14.48;12.27;;;10.40;95.20;;;;;;4949737;28;20066;-76
2021/11/07 02:08:21;;;;;;;16.88;12.32;;;10.40;95.20;;;;;;4942565;28;20055;-76
2021/11/07 02:10:54;;;;;;;17.38;13.35;;;10.40;95.20;;;;;;4943167;28;20055;-76
2021/11/07 02:13:22;;;;;;;18.83;14.65;;;10.40;95.20;;;;;;4937210;28;20451;-76
2021/11/07 02:15:50;;;;;;;16.27;11.82;;;10.40;95.30;;;;;;4944795;28;20444;-76
2021/11/07 02:18:25;;;;;;;14.57;11.65;;;10.40;95.30;;;;;;4943568;28;20062;-76
2021/11/07 02:20:53;;;;;;;15.88;11.95;;;10.50;95.30;;;;;;4953923;28;20062;-75
2021/11/07 02:23:23;;;;;;;15.55;11.43;;;10.40;95.30;;;;;;4963055;28;20067;-75
2021/11/07 02:25:53;;;;;;;18.42;12.05;;;10.50;95.30;;;;;;4959526;28;20039;-76
2021/11/07 02:28:31;;;;;;;18.10;11.65;;;10.50;95.30;;;;;;4960718;28;20039;-76
2021/11/07 02:30:59;;;;;;;16.15;11.88;;;10.50;95.30;;;;;;4964936;28;20137;-76
2021/11/07 02:33:27;;;;;;;14.75;11.77;;;10.50;95.30;;;;;;4951089;28;20058;-76
2021/11/07 02:36:06;;;;;;;;;;;10.50;95.40;;;;;;4964947;28;20038;-76
2021/11/07 02:38:35;;;;;;;20.25;14.18;;;10.50;95.40;;;;;;4967400;28;19923;-76
2021/11/07 02:41:08;;;;;;;15.93;12.60;;;10.50;95.40;;;;;;4941260;28;20050;-76
2021/11/07 02:43:50;;;;;;;18.25;12.48;;;10.50;95.40;;;;;;4959135;28;20098;-76
2021/11/07 02:46:18;;;;;;;21.42;14.70;;;10.50;95.40;;;;;;4960325;28;20046;-76
2021/11/07 02:49:00;;;;;;;18.88;14.43;;;10.50;95.80;;;;;;4948783;28;20814;-76
2021/11/07 02:51:29;;;;;;;21.50;13.88;;;10.60;95.50;;;;;;4966187;28;20113;-76
2021/11/07 02:53:59;;;;;;;17.75;13.32;;;10.60;95.50;;;;;;4960951;28;20047;-78
2021/11/07 02:56:26;;;;;;;18.73;14.20;;;10.60;95.50;;;;;;4961375;28;20070;-76
2021/11/07 02:58:53;;;;;;;19.67;14.38;;;10.60;95.60;;;;;;4960811;28;20067;-78
2021/11/07 03:01:23;;;;;;;17.45;13.52;;;10.60;95.60;;;;;;4941459;28;20052;-78
2021/11/07 03:03:55;;;;;;;17.38;13.15;;;10.60;95.50;;;;;;4945001;28;20593;-76
2021/11/07 03:06:21;;;;;;;18.10;12.85;;;10.60;95.50;;;;;;4962424;28;20067;-76
2021/11/07 03:08:50;;;;;;;17.98;12.48;;;10.60;95.60;;;;;;4943791;28;20055;-77
2021/11/07 03:11:18;;;;;;;16.95;12.73;;;10.60;95.60;;;;;;4961320;28;20079;-77
2021/11/07 03:13:48;;;;;;;16.60;12.68;;;10.60;95.60;;;;;;4960340;28;20038;-77
2021/11/07 03:16:16;;;;;;;20.75;14.98;;;10.70;95.60;;;;;;4960529;28;20051;-76
2021/11/07 03:18:43;;;;;;;15.73;11.57;;;10.70;95.60;;;;;;4957047;28;20092;-77
2021/11/07 03:21:14;;;;;;;22.65;14.32;;;10.70;95.60;;;;;;4961988;28;20119;-77
2021/11/07 03:23:49;;;;;;;20.88;14.35;;;10.70;95.60;;;;;;4961777;28;20549;-76
2021/11/07 03:26:21;;;;;;;19.83;14.48;;;10.70;95.60;;;;;;4977895;28;20050;-77
2021/11/07 03:28:51;;;;;;;;;;;10.80;95.60;;;;;;4953482;28;20403;-77
2021/11/07 03:31:25;;;;;;;23.77;15.13;;;10.80;95.60;;;;;;4966288;28;19966;-77
2021/11/07 03:33:56;;;;;;;20.77;13.75;;;10.70;95.60;;;;;;4962440;28;20548;-76
2021/11/07 03:36:24;;;;;;;19.95;14.38;;;10.80;95.60;;;;;;4950006;28;20093;-76
2021/11/07 03:38:53;;;;;;;21.25;14.07;;;10.80;95.70;;;;;;4939654;28;20073;-77
2021/11/07 03:41:21;;;;;;;16.50;12.52;;;10.80;95.70;;;;;;4966793;28;20054;-76
2021/11/07 03:43:51;;;;;;;20.38;12.77;;;10.80;95.60;;;;;;4960216;28;20085;-77
2021/11/07 03:46:18;;;;;;;18.38;12.95;;;10.90;95.60;;;;;;4957276;28;20051;-77
2021/11/07 03:48:46;;;;;;;18.90;13.07;;;10.90;95.60;;;;;;4945084;28;20483;-76
2021/11/07 03:51:15;;;;;;;18.52;11.70;;;10.90;95.60;;;;;;4960957;28;20055;-76
2021/11/07 03:53:43;;;;;;;18.35;12.77;;;10.90;95.60;;;;;;4958950;28;20047;-76
2021/11/07 03:56:10;;;;;;;17.92;11.30;;;10.90;95.60;;;;;;4964028;28;20051;-76
2021/11/07 03:58:37;;;;;;;16.05;11.13;;;11.00;95.60;;;;;;4938967;28;20459;-79
2021/11/07 04:01:04;;;;;;;17.77;9.93;;;11.00;95.60;;;;;;4958860;28;20600;-80
2021/11/07 04:03:31;;;;;;;14.30;9.35;;;11.00;95.60;;;;;;4960474;28;20047;-80
2021/11/07 04:05:58;;;;;;;15.63;9.88;;;11.00;95.50;;;;;;4947221;28;20049;-79
2021/11/07 04:08:25;;;;;;;16.73;10.15;;;11.00;95.50;;;;;;4943537;28;20054;-78
2021/11/07 04:10:53;;;;;;;16.67;9.38;;;11.00;95.50;;;;;;4963796;28;20567;-76
2021/11/07 04:13:20;;;;;;;15.30;9.60;;;11.10;95.60;;;;;;4946971;28;20094;-77
2021/11/07 04:15:47;;;;;;;15.60;7.72;;;11.00;95.50;;;;;;4940510;28;20074;-76
2021/11/07 04:18:14;;;;;;;17.05;6.95;;;11.00;95.60;;;;;;4962400;28;20054;-77
2021/11/07 04:20:41;;;;;;;14.30;5.93;;;10.90;95.50;;;;;;4938826;28;20098;-76
2021/11/07 04:23:08;;;;;;;11.82;5.15;;;10.90;95.50;;;;;;4961942;28;20043;-77
2021/11/07 04:25:35;;;;;;;13.45;5.63;;;10.90;95.60;;;;;;4932052;28;20043;-76
2021/11/07 04:28:03;;;;;;;9.35;4.18;;;10.80;95.60;;;;;;4940373;28;20114;-76
2021/11/07 04:30:30;;;;;;;13.55;3.75;;;10.80;95.60;;;;;;4936425;28;20078;-76
2021/11/07 04:32:57;;;;;;;8.85;2.80;;;10.70;95.50;;;;;;4942661;28;20035;-76
2021/11/07 04:35:24;;;;;;;6.70;2.70;;;10.80;95.60;;;;;;4945591;28;20078;-76
2021/11/07 04:37:52;;;;;;;6.85;2.38;;;10.70;95.60;;;;;;4945696;28;20562;-76
2021/11/07 04:40:19;;;;;;;4.45;2.03;;;10.70;95.60;;;;;;4944183;28;20047;-76
2021/11/07 04:42:47;;;;;;;5.80;1.80;;;10.70;95.60;;;;;;4963788;28;20069;-76
2021/11/07 04:45:14;;;;;;;9.43;2.00;;;10.60;95.50;;;;;;4955211;28;20050;-76
2021/11/07 04:47:41;;;;;;;6.22;1.83;;;10.60;95.50;;;;;;4963161;28;20134;-76
2021/11/07 04:50:11;;;;;;;6.78;2.08;;;10.60;95.50;;;;;;4962551;28;20452;-76
2021/11/07 04:52:39;;;;;;;4.40;1.42;;;10.60;95.60;;;;;;4971242;28;20074;-76
2021/11/07 04:55:07;;;;;;;5.82;1.73;;;10.60;95.60;;;;;;4942914;28;20066;-76
2021/11/07 04:57:41;;;;;;;9.68;2.30;;;10.60;95.90;;;;;;4953711;28;20183;-76
2021/11/07 05:00:17;;;;;;;8.77;2.40;;;10.50;95.60;;;;;;4962683;28;20047;-76
2021/11/07 05:02:47;;;;;;;6.18;1.40;;;10.50;95.60;;;;;;4960517;28;20728;-76
2021/11/07 05:05:16;;;;;;;6.18;1.15;;;10.50;95.60;;;;;;4960396;28;20050;-76
2021/11/07 05:07:42;;;;;;;5.13;0.93;;;10.50;95.60;;;;;;4961338;28;20914;-75
2021/11/07 05:10:10;;;;;;;9.98;1.55;;;10.50;95.60;;;;;;4959266;28;20117;-76
2021/11/07 05:12:38;;;;;;;4.30;1.42;;;10.50;95.60;;;;;;4961802;28;20081;-76
2021/11/07 05:15:06;;;;;;;7.68;1.48;;;10.50;95.60;;;;;;4962543;28;20043;-75
2021/11/07 05:17:33;;;;;;;6.60;1.52;;;10.50;95.60;;;;;;4961283;28;20075;-76
2021/11/07 05:20:00;;;;;;;8.27;1.63;;;10.50;95.60;;;;;;4963046;28;20450;-76
2021/11/07 05:22:30;;;;;;;6.85;1.40;;;10.50;95.60;;;;;;4948590;28;20050;-75
2021/11/07 05:24:57;;;;;;;7.30;1.45;;;10.50;95.60;;;;;;4966858;28;20126;-76
2021/11/07 05:27:24;;;;;;;5.38;1.23;;;10.50;95.60;;;;;;4963177;28;20548;-76
2021/11/07 05:29:51;;;;;;;6.80;1.50;;;10.50;95.80;;;;;;4961233;28;20071;-76
2021/11/07 05:32:18;;;;;;;4.45;1.42;;;10.50;95.60;;;;;;4944390;28;20551;-76
2021/11/07 05:34:46;;;;;;;5.57;1.25;;;10.50;95.50;;;;;;4945819;28;20071;-76
2021/11/07 05:37:13;;;;;;;9.45;1.70;;;10.50;95.50;;;;;;4947138;28;20051;-76
2021/11/07 05:39:41;;;;;;;5.30;1.25;;;10.50;95.50;;;;;;4954878;28;20047;-76
2021/11/07 05:42:10;;;;;;;5.72;1.85;;;10.40;95.40;;;;;;4962260;28;20066;-76
2021/11/07 05:44:37;;;;;;;3.88;0.90;;;10.40;95.40;;;;;;4937587;28;20055;-76
2021/11/07 05:47:05;;;;;;;5.18;1.05;;;10.40;95.40;;;;;;4944584;28;20035;-76
2021/11/07 05:49:32;;;;;;;4.72;1.20;;;10.40;95.40;;;;;;4956410;28;20142;-77
2021/11/07 05:51:58;;;;;;;13.98;1.75;;;10.40;95.40;;;;;;4954761;28;20043;-76
2021/11/07 05:54:26;;;;;;;4.47;0.73;;;10.40;95.40;;;;;;4950748;28;20503;-76
2021/11/07 05:56:54;;;;;;;5.15;1.00;;;10.30;95.40;;;;;;4956160;28;20054;-76
2021/11/07 05:59:21;;;;;;;6.93;1.00;;;10.30;95.70;;;;;;4951847;28;20131;-76
2021/11/07 06:01:48;;;;;;;3.45;0.80;;;10.30;95.40;;;;;;4962233;28;20052;-76
2021/11/07 06:04:15;;;;;;;5.20;0.95;;;10.30;95.40;;;;;;4952250;28;20047;-76
2021/11/07 06:06:42;;;;;;;4.88;0.93;;;10.30;95.40;;;;;;4952818;28;20109;-76
2021/11/07 06:09:10;;;;;;;3.72;0.90;;;10.30;95.40;;;;;;4966107;28;20045;-76
2021/11/07 06:11:37;;;;;;;7.45;1.13;;;10.20;95.30;;;;;;4947227;28;20141;-77
2021/11/07 06:14:04;;;;;;;5.88;1.00;;;10.20;95.30;;;;;;4957365;28;20039;-77
2021/11/07 06:16:31;;;;;;;5.80;1.27;;;10.20;95.30;;;;;;4940845;28;20043;-77
2021/11/07 06:18:58;;;;;;;8.50;1.17;;;10.20;95.30;;;;;;4960920;28;20043;-77
2021/11/07 06:21:25;;;;;;;6.15;1.25;;;10.10;95.20;;;;;;4942608;28;20075;-77
2021/11/07 06:23:55;;;;;;;5.93;1.30;;;10.00;95.20;;;;;;4942989;28;20054;-77
2021/11/07 06:26:22;;;;;;;4.93;0.80;;;10.00;95.20;;;;;;4948635;28;20125;-77
2021/11/07 06:28:51;;;;;;;7.65;1.30;;;9.90;95.20;;;;;;4946212;28;20050;-77
2021/11/07 06:31:22;;;;;;;4.20;1.15;;;9.80;95.20;;;;;;4940456;28;20043;-77
2021/11/07 06:33:49;;;;;;;5.75;1.17;;;9.80;95.30;;;;;;4946532;28;20188;-77
2021/11/07 06:36:17;;;;;;;4.95;0.90;;;9.70;95.20;;;;;;4940362;28;20051;-77
2021/11/07 06:38:44;;;;;;;8.85;1.40;;;9.70;95.20;;;;;;4958944;28;20045;-77
2021/11/07 06:41:11;;;;;;;4.63;1.27;;;9.60;95.20;;;;;;4945374;28;20043;-77
2021/11/07 06:43:38;;;;;;;3.33;0.70;;;9.60;95.20;;;;;;4960979;28;20063;-77
2021/11/07 06:46:05;;;;;;;8.75;1.95;;;9.60;95.20;;;;;;4970004;28;20073;-77
2021/11/07 06:48:34;;;;;;;6.28;1.10;;;9.50;95.20;;;;;;4946463;28;21314;-77
2021/11/07 06:51:01;;;;;;;3.85;1.05;;;9.50;95.20;;;;;;4948076;28;20054;-76
2021/11/07 06:53:28;;;;;;;5.80;1.13;;;9.50;95.20;;;;;;4946180;28;20038;-77
2021/11/07 06:55:55;;;;;;;3.80;0.77;;;9.50;95.20;;;;;;4960908;28;20047;-77
2021/11/07 06:58:23;;;;;;;4.30;0.85;;;9.40;95.20;;;;;;4942029;28;20187;-77
2021/11/07 07:00:50;;;;;;;7.40;1.23;;;9.40;95.20;;;;;;4945800;28;20450;-76
2021/11/07 07:03:18;;;;;;;6.13;0.93;;;9.30;95.20;;;;;;4950440;28;20071;-77
2021/11/07 07:05:45;;;;;;;6.13;0.82;;;9.30;95.20;;;;;;4960316;28;20070;-77
2021/11/07 07:08:20;;;;;;;4.20;0.75;;;9.30;95.20;;;;;;4955036;28;20267;-77
2021/11/07 07:11:05;;;;;;;4.57;0.77;;;9.20;95.20;;;;;;4950263;28;20035;-77
2021/11/07 07:13:43;;;;;;;5.05;0.63;;;9.20;95.20;;;;;;4960321;28;20044;-77
2021/11/07 07:16:33;;;;;;;2.53;0.55;;;9.20;95.30;;;;;;4951300;28;20042;-77
2021/11/07 07:19:17;;;;;;;4.05;1.13;;;9.10;95.20;;;;;;4939301;28;20719;-76
2021/11/07 07:22:07;;;;;;;7.07;1.00;;;9.10;95.50;;;;;;4935365;28;20078;-77
2021/11/07 07:25:04;;;;;;;5.40;0.98;;;9.10;95.20;;;;;;4959559;28;20110;-77
2021/11/07 07:35:39;;;;;;;4.00;1.20;;;9.20;95.10;;;;;;4959889;28;20078;-77
2021/11/07 07:38:07;;;;;;;5.07;0.73;;;9.30;95.10;;;;;;4957398;28;20043;-78
2021/11/07 07:40:34;;;;;;;5.30;0.70;;;9.30;95.00;;;;;;4944093;28;20058;-82
2021/11/07 07:43:01;;;;;;;6.22;1.35;;;9.30;95.00;;;;;;4950729;28;20161;-78
2021/11/07 07:45:29;;;;;;;5.85;0.75;;;9.30;94.90;;;;;;4966192;28;20051;-77
2021/11/07 07:47:57;;;;;;;5.55;0.90;;;9.30;94.90;;;;;;4955285;28;20039;-76
2021/11/07 07:50:24;;;;;;;5.28;0.75;;;9.30;94.80;;;;;;4945439;28;20046;-77
2021/11/07 07:52:52;;;;;;;7.88;0.70;;;9.30;94.80;;;;;;4944712;28;20109;-76
2021/11/07 07:55:22;;;;;;;4.72;0.90;;;9.30;94.80;;;;;;4960401;28;20043;-77
2021/11/07 07:57:50;;;;;;;5.05;1.00;;;9.30;94.80;;;;;;4939732;28;20118;-77
2021/11/07 08:00:20;;;;;;;5.15;0.52;;;9.30;94.80;;;;;;4962360;28;20739;-77
2021/11/07 08:02:47;;;;;;;4.88;1.13;;;9.30;94.80;;;;;;4954350;28;20094;-77
2021/11/07 08:05:14;;;;;;;7.90;1.20;;;9.30;94.80;;;;;;4957422;28;20105;-77
2021/11/07 08:07:43;;;;;;;5.50;1.23;;;9.30;94.80;;;;;;4945370;28;20035;-77
2021/11/07 08:10:12;;;;;;;4.50;1.08;;;9.30;94.80;;;;;;4963256;28;20039;-77
2021/11/07 08:12:40;;;;;;;8.43;1.02;;;9.30;94.70;;;;;;4960724;28;20051;-77
2021/11/07 08:15:10;;;;;;;7.97;1.20;;;9.40;94.70;;;;;;4941034;28;20044;-77
2021/11/07 08:17:38;;;;;;;4.53;0.70;;;9.40;94.70;;;;;;4961533;28;20043;-76
2021/11/07 08:20:08;;;;;;;10.18;1.20;;;9.50;94.60;;;;;;4947248;28;20090;-77
2021/11/07 08:22:36;;;;;;;8.15;1.30;;;9.60;94.60;;;;;;4964727;28;20074;-78
2021/11/07 08:25:19;;;;;;;6.82;1.65;;;9.80;94.50;;;;;;4960373;28;20495;-78
2021/11/07 08:27:47;;;;;;;;;;;9.90;94.30;;;;;;4947249;28;20380;-78
2021/11/07 08:30:16;;;;;;;7.60;1.52;;;10.00;94.20;;;;;;4958942;28;20017;-78
2021/11/07 08:32:44;;;;;;;7.78;1.80;;;9.90;93.90;;;;;;4959940;28;20047;-78
2021/11/07 08:35:11;;;;;;;5.18;0.93;;;9.90;93.90;;;;;;4944104;28;20050;-77
2021/11/07 08:37:47;;;;;;;5.70;1.20;;;9.80;94.00;;;;;;4952116;28;20042;-78
2021/11/07 08:40:21;;;;;;;7.00;0.80;;;9.70;94.00;;;;;;4963697;28;20111;-77
2021/11/07 09:02:55;;;;;;;4.40;0.68;;;9.30;94.50;;;;;;4956861;28;20487;-80
2021/11/07 09:05:31;;;;;;;6.22;0.88;;;9.30;94.40;;;;;;4947835;28;20452;-80
2021/11/07 09:10:36;;;;;;;3.58;0.73;;;9.40;94.40;;;;;;4978969;28;20047;-80
2021/11/07 09:13:06;;;;;;;7.60;1.23;;;9.50;94.40;;;;;;4943571;28;20101;-80
2021/11/07 09:15:37;;;;;;;7.28;1.48;;;9.60;94.30;;;;;;4948032;28;20051;-80
2021/11/07 09:18:05;;;;;;;10.50;1.42;;;9.80;94.30;;;;;;4941229;28;20414;-78
2021/11/07 09:23:37;;;;;;;8.57;1.00;;;10.10;93.90;;;;;;4963441;28;20452;-78
2021/11/07 09:28:31;;;;;;;6.60;1.17;;;10.40;93.70;;;;;;4945982;28;20130;-78
2021/11/07 09:31:11;;;;;;;5.90;1.15;;;10.50;93.60;;;;;;4950861;28;20043;-79
2021/11/07 09:36:28;;;;;;;6.55;1.77;;;10.40;93.40;;;;;;4960275;28;20118;-77
2021/11/07 09:44:00;;;;;;;10.25;1.25;;;10.20;93.90;;;;;;4962271;28;20103;-77
2021/11/07 09:46:34;;;;;;;;;;;10.20;93.60;;;;;;4969411;28;20073;-78
2021/11/07 09:49:24;;;;;;;9.75;1.23;;;10.30;93.60;;;;;;4963973;28;20413;-78
2021/11/07 09:52:06;;;;;;;9.25;1.65;;;10.40;93.60;;;;;;4969775;28;20169;-77
2021/11/07 09:54:34;;;;;;;12.45;1.65;;;10.50;93.40;;;;;;4959885;28;20407;-78
2021/11/07 09:57:02;;;;;;;7.93;1.35;;;10.60;93.20;;;;;;4964455;28;20097;-78
2021/11/07 09:59:30;;;;;;;12.52;1.75;;;10.70;93.00;;;;;;4961312;28;20090;-78
2021/11/07 10:02:00;;;;;;;10.02;1.20;;;10.80;92.80;;;;;;4961558;28;20071;-78
2021/11/07 10:04:35;;;;;;;7.97;1.45;;;10.80;92.80;;;;;;4939273;28;20053;-78
2021/11/07 10:07:14;;;;;;;8.98;1.58;;;10.80;92.80;;;;;;4962256;28;20071;-78
2021/11/07 10:09:42;;;;;;;4.75;1.00;;;10.70;92.70;;;;;;4960701;28;20047;-78
2021/11/07 10:12:19;;;;;;;13.68;1.63;;;10.60;92.80;;;;;;4962169;28;20038;-78
2021/11/07 10:14:50;;;;;;;7.15;1.50;;;10.60;92.90;;;;;;4961911;28;20047;-80
2021/11/07 10:18:08;;;;;;;6.00;1.20;;;10.70;92.90;;;;;;4966911;28;20399;-80
2021/11/07 10:20:46;;;;;;;8.15;1.02;;;10.90;92.90;;;;;;4960102;28;20549;-80
2021/11/07 10:23:27;;;;;;;6.85;0.88;;;11.10;92.80;;;;;;4952554;28;20051;-78
2021/11/07 10:28:40;;;;;;;7.47;1.75;;;11.40;92.30;;;;;;4962105;28;20035;-81
2021/11/07 10:31:15;;;;;;;7.97;1.48;;;11.50;92.00;;;;;;4953860;28;20039;-81
2021/11/07 10:34:48;;;;;;;10.98;2.10;;;11.50;91.80;;;;;;4942986;28;20051;-78
2021/11/07 10:42:44;;;;;;;13.25;2.08;;;11.50;91.30;;;;;;4961646;28;20587;-78
2021/11/07 10:52:48;;;;;;;11.13;1.70;;;11.90;90.50;;;;;;4962115;28;20126;-78
2021/11/07 10:55:23;;;;;;;9.18;1.52;;;12.00;89.90;;;;;;4961765;28;20043;-76
2021/11/07 10:58:02;;;;;;;9.27;1.77;;;12.00;89.80;;;;;;4944736;28;20047;-77
2021/11/07 11:00:49;;;;;;;8.00;1.92;;;12.10;90.00;;;;;;4963338;28;20061;-76
2021/11/07 11:03:22;;;;;;;6.90;1.17;;;12.20;90.00;;;;;;4941543;28;20047;-76
2021/11/07 11:05:53;;;;;;;12.00;1.48;;;12.20;89.00;;;;;;4957705;28;20129;-77
2021/11/07 11:08:39;;;;;;;8.30;1.20;;;12.20;88.30;;;;;;4959547;28;20065;-77
2021/11/07 11:35:34;;;;;;;10.48;2.17;;;12.00;86.50;;;;;;4934783;28;20743;-80
2021/11/07 11:46:07;;;;;;;7.15;1.23;;;12.30;85.70;;;;;;4948585;28;20075;-77
2021/11/07 11:57:08;;;;;;;4.72;1.65;;;12.20;84.80;;;;;;4966734;28;20388;-78
2021/11/07 12:05:06;;;;;;;5.65;1.52;;;12.10;84.20;;;;;;4954224;28;20817;-78
2021/11/07 12:07:46;;;;;;;7.18;1.00;;;12.10;84.00;;;;;;4956467;28;20047;-77
2021/11/07 12:10:27;;;;;;;5.30;1.30;;;12.00;83.40;;;;;;4958335;28;20043;-77
2021/11/07 12:13:00;;;;;;;6.75;1.02;;;11.80;83.30;;;;;;4967084;28;20055;-78
2021/11/07 12:15:45;;;;;;;5.57;0.98;;;11.60;83.80;;;;;;4960079;28;20034;-76
2021/11/07 12:18:12;;;;;;;5.13;1.20;;;11.30;84.40;;;;;;4940914;28;20055;-76
2021/11/07 12:20:42;;;;;;;6.40;1.38;;;11.10;85.10;;;;;;4940515;28;20126;-78
2021/11/07 12:23:34;;;;;;;3.50;1.00;;;11.00;85.60;;;;;;4959797;28;20043;-76
2021/11/07 12:26:21;;;;;;;9.60;1.35;;;10.90;86.10;;;;;;4955162;28;20089;-76
2021/11/07 12:28:52;;;;;;;6.18;1.15;;;10.80;86.40;;;;;;4956361;28;20496;-77
2021/11/07 12:31:24;;;;;;;4.65;0.70;;;10.80;86.60;;;;;;4960880;28;20039;-76
2021/11/07 12:34:19;;;;;;;8.27;1.20;;;10.80;86.80;;;;;;4950305;28;20047;-76
2021/11/07 12:42:29;;;;;;;3.28;0.60;;;10.60;87.40;;;;;;4961203;28;20077;-76
2021/11/07 12:45:31;;;;;;;5.95;0.93;;;10.60;87.60;;;;;;4958939;28;20054;-77
2021/11/07 12:48:05;;;;;;;4.20;1.08;;;10.70;87.70;;;;;;4942428;28;20062;-77
2021/11/07 12:50:58;;;;;;;6.30;0.85;;;10.80;87.80;;;;;;4948999;28;20045;-76
2021/11/07 12:53:29;;;;;;;6.40;1.50;;;10.80;87.80;;;;;;4963845;28;20093;-78
2021/11/07 12:55:58;;;;;;;;;;;10.90;87.90;;;;;;4953084;28;20050;-78
2021/11/07 12:58:25;;;;;;;8.45;1.35;;;10.90;87.70;;;;;;4948690;28;19927;-78
2021/11/07 13:00:52;;;;;;;8.57;1.25;;;10.90;87.40;;;;;;4937628;28;20051;-78
2021/11/07 13:03:19;;;;;;;6.57;1.13;;;11.00;87.30;;;;;;4956112;28;20062;-77
2021/11/07 13:05:52;;;;;;;5.20;1.00;;;11.10;87.40;;;;;;4940217;28;20110;-78
2021/11/07 13:08:21;;;;;;;;;;;11.20;87.30;;;;;;4957473;28;20097;-77
2021/11/07 13:11:14;;;;;;;8.82;1.30;;;11.20;86.90;;;;;;4965548;28;19993;-77
2021/11/07 13:13:47;;;;;;;11.23;1.65;;;11.30;86.90;;;;;;4960372;28;20047;-77
2021/11/07 13:29:29;;;;;;;9.40;1.80;;;11.30;87.20;;;;;;4959265;28;20459;-77
2021/11/07 13:32:35;;;;;;;13.85;1.80;;;11.30;87.50;;;;;;4966903;28;20062;-77
2021/11/07 13:35:07;;;;;;;10.75;1.35;;;11.30;87.60;;;;;;4962022;28;20050;-78
2021/11/07 13:37:56;;;;;;;9.52;3.22;;;11.30;87.80;;;;;;4951858;28;20042;-76
2021/11/07 13:40:35;;;;;;;7.60;1.60;;;11.20;88.00;;;;;;4961885;28;20106;-76
2021/11/07 13:43:14;;;;;;;11.65;2.13;;;11.10;88.40;;;;;;4958345;28;20051;-76
2021/11/07 13:45:44;;;;;;;6.53;1.10;;;10.90;88.80;;;;;;4960296;28;20035;-76
2021/11/07 13:48:16;;;;;;;14.63;1.65;;;10.70;89.30;;;;;;4957931;28;20399;-77
2021/11/07 13:50:43;;;;;;;;;;;10.70;89.80;;;;;;4959874;28;20573;-76
2021/11/07 13:53:28;;;;;;;7.78;1.73;;;10.50;90.00;;;;;;4953987;28;19925;-76
2021/11/07 13:55:58;;;;;;;8.52;1.45;;;10.40;90.20;;;;;;4958798;28;20135;-76
2021/11/07 13:58:28;;;;;;;8.13;1.80;;;10.40;90.30;;;;;;4954459;28;20055;-76
2021/11/07 14:01:00;;;;;;;13.57;2.15;;;10.40;90.40;;;;;;4959794;28;20055;-78
2021/11/07 14:03:27;;;;;;;12.77;1.55;;;10.40;90.60;;;;;;4950820;28;20079;-78
2021/11/07 14:06:23;;;;;;;11.68;2.05;;;10.20;90.60;;;;;;4923557;28;20039;-76
2021/11/07 14:08:48;;;;;;;8.80;1.60;;;10.00;90.60;;;;;;4956036;28;20065;-79
2021/11/07 14:11:20;;;;;;;7.28;0.93;;;9.70;90.90;;;;;;4959853;28;20086;-78
2021/11/07 14:13:50;;;;;;;5.32;1.35;;;9.50;91.20;;;;;;4938717;28;20035;-78
2021/11/07 14:16:33;;;;;;;2.58;0.60;;;9.30;91.40;;;;;;4956150;28;20046;-77
2021/11/07 14:19:04;;;;;;;7.65;0.77;;;9.20;91.50;;;;;;4955013;28;20039;-77
2021/11/07 14:21:36;;;;;;;3.10;0.52;;;9.10;91.60;;;;;;4955750;28;20053;-76
2021/11/07 14:24:08;;;;;;;3.47;1.00;;;9.10;91.80;;;;;;4953850;28;20051;-76
2021/11/07 14:29:59;;;;;;;4.72;0.75;;;8.90;91.90;;;;;;4952679;28;20043;-76
2021/11/07 14:34:59;;;;;;;1.92;0.40;;;9.00;92.00;;;;;;4958149;28;20047;-77
2021/11/07 14:48:30;;;;;;;6.53;1.48;;;9.20;92.00;;;;;;4965403;28;20456;-77
2021/11/07 14:51:28;;;;;;;5.15;1.45;;;9.30;92.10;;;;;;4950893;28;20101;-77
2021/11/07 14:56:38;;;;;;;9.43;1.50;;;9.30;92.10;;;;;;4958080;28;20075;-76
2021/11/07 14:59:15;;;;;;;9.73;1.70;;;9.40;92.20;;;;;;4959406;28;20043;-75
2021/11/07 15:01:46;;;;;;;9.75;1.55;;;9.40;92.20;;;;;;4925927;28;20055;-75
2021/11/07 15:07:15;;;;;;;10.77;2.20;;;9.50;92.20;;;;;;4955769;28;20047;-74
2021/11/07 15:10:21;;;;;;;9.68;2.90;;;9.50;92.20;;;;;;4955976;28;20393;-73
2021/11/07 15:12:50;;;;;;;11.20;2.20;;;9.50;92.50;;;;;;4965696;28;20067;-73
2021/11/07 15:18:09;;;;;;;10.13;1.80;;;9.50;92.30;;;;;;4960404;28;20049;-74
2021/11/07 15:20:39;;;;;;;15.73;2.75;;;9.50;92.20;;;;;;4964239;28;20261;-74
2021/11/07 15:23:07;;;;;;;5.30;1.25;;;9.50;92.20;;;;;;4944322;28;20043;-73
2021/11/07 15:25:38;;;;;;;7.57;1.38;;;9.50;92.20;;;;;;4939516;28;20126;-74
2021/11/07 15:28:12;;;;;;;6.57;1.05;;;9.50;92.20;;;;;;4953092;28;20066;-74
2021/11/07 15:30:41;;;;;;;5.50;1.55;;;9.50;92.20;;;;;;4950745;28;20102;-73
2021/11/07 15:33:15;;;;;;;7.05;1.25;;;9.40;92.20;;;;;;4954789;28;20483;-73
2021/11/07 15:35:48;;;;;;;7.30;2.47;;;9.40;92.30;;;;;;4952364;28;20086;-73
2021/11/07 15:38:25;;;;;;;8.20;1.40;;;9.40;92.30;;;;;;4949520;28;20126;-74
2021/11/07 15:41:04;;;;;;;10.15;1.58;;;9.40;92.30;;;;;;4950502;28;20043;-73
2021/11/07 15:43:31;;;;;;;5.22;0.93;;;9.40;92.20;;;;;;4952005;28;20125;-73
2021/11/07 15:46:08;;;;;;;5.38;1.00;;;9.30;92.20;;;;;;4951702;28;20436;-73
2021/11/07 15:48:42;;;;;;;4.70;1.05;;;9.30;92.20;;;;;;4960008;28;20098;-73
2021/11/07 15:51:27;;;;;;;5.47;0.90;;;9.20;92.20;;;;;;4949450;28;20071;-73
2021/11/07 15:56:37;;;;;;;5.80;1.02;;;9.10;92.20;;;;;;4949981;28;20134;-73
2021/11/07 16:17:21;;;;;;;;;;;8.80;92.40;;;;;;4955262;28;20055;-74
2021/11/07 16:19:49;;;;;;;6.55;1.10;;;8.70;92.50;;;;;;4937077;28;19926;-74
2021/11/07 16:22:18;;;;;;;4.75;0.90;;;8.70;92.50;;;;;;4958245;28;20696;-74
2021/11/07 16:24:48;;;;;;;3.72;1.10;;;8.60;92.50;;;;;;4950388;28;20057;-74
2021/11/07 16:27:15;;;;;;;3.53;1.15;;;8.60;92.50;;;;;;4953360;28;20490;-73
2021/11/07 16:29:42;;;;;;;3.65;0.90;;;8.60;92.60;;;;;;4952903;28;20514;-75
2021/11/07 16:35:02;;;;;;;3.00;0.80;;;8.50;92.60;;;;;;4957714;28;20078;-74
2021/11/07 16:37:34;;;;;;;;;;;8.50;92.60;;;;;;4940129;28;20059;-74
2021/11/07 16:40:10;;;;;;;4.00;1.45;;;8.50;92.70;;;;;;4961705;28;20454;-74